createdAt,value
2019-05-14T00:03:43.855Z,1.70
2019-05-14T00:08:49.292Z,2.00
2019-05-14T00:13:54.744Z,1.83
2019-05-14T00:19:01.672Z,1.90
2019-05-14T00:24:07.189Z,1.90
2019-05-14T00:29:12.624Z,2.10
2019-05-14T00:34:18.054Z,2.00
2019-05-14T00:39:23.481Z,2.17
2019-05-14T00:44:28.940Z,2.10
2019-05-14T00:49:34.404Z,2.37
2019-05-14T00:54:41.686Z,1.93
2019-05-14T00:59:47.020Z,1.97
2019-05-14T01:04:52.486Z,2.00
2019-05-14T01:09:57.987Z,2.00
2019-05-14T01:15:10.255Z,2.00
2019-05-14T01:20:12.397Z,2.50
2019-05-14T01:25:17.942Z,2.03
2019-05-14T01:30:23.371Z,1.90
2019-05-14T01:35:28.812Z,1.90
2019-05-14T01:40:34.296Z,2.00
2019-05-14T01:45:41.688Z,2.00
2019-05-14T01:50:47.029Z,1.63
2019-05-14T01:55:52.474Z,1.77
2019-05-14T02:00:57.912Z,1.90
2019-05-14T02:06:03.326Z,1.60
2019-05-14T02:11:08.792Z,1.90
2019-05-14T02:16:14.238Z,1.80
2019-05-14T02:21:19.652Z,1.67
2019-05-14T02:26:25.144Z,1.60
2019-05-14T02:31:30.682Z,1.90
2019-05-14T02:36:36.165Z,1.90
2019-05-14T02:41:41.644Z,1.60
2019-05-14T02:46:50.249Z,1.67
2019-05-14T02:51:54.233Z,1.70
2019-05-14T02:57:00.255Z,1.60
2019-05-14T03:02:05.798Z,2.13
2019-05-14T03:07:11.395Z,2.10
2019-05-14T03:12:19.454Z,1.60
2019-05-14T03:17:24.088Z,2.07
2019-05-14T03:22:42.779Z,2.17
2019-05-14T03:27:40.106Z,2.00
2019-05-14T03:32:44.169Z,1.93
2019-05-14T03:37:50.021Z,2.20
2019-05-14T03:42:55.545Z,2.47
2019-05-14T03:48:00.991Z,2.67
2019-05-14T03:53:09.847Z,2.50
2019-05-14T03:58:13.660Z,2.57
2019-05-14T04:03:19.930Z,2.80
2019-05-14T04:08:29.010Z,3.00
2019-05-14T04:13:33.834Z,3.00
2019-05-14T04:18:40.607Z,3.70
2019-05-14T04:23:51.210Z,3.00
2019-05-14T04:29:00.224Z,3.47
2019-05-14T04:34:04.552Z,3.70
2019-05-14T04:39:10.374Z,3.40
2019-05-14T04:44:18.940Z,3.37
2019-05-14T04:49:23.288Z,2.87
2019-05-14T04:54:30.136Z,3.53
2019-05-14T04:59:39.347Z,3.90
2019-05-14T05:04:43.140Z,3.50
2019-05-14T05:09:50.133Z,3.87
2019-05-14T05:14:58.565Z,3.63
2019-05-14T05:20:03.252Z,3.57
2019-05-14T05:25:08.859Z,3.70
2019-05-14T05:30:14.294Z,3.77
2019-05-14T05:35:19.899Z,3.07
2019-05-14T05:40:25.349Z,3.60
2019-05-14T05:45:30.826Z,3.23
2019-05-14T05:50:38.744Z,2.93
2019-05-14T05:55:43.553Z,3.27
2019-05-14T06:00:49.758Z,3.50
2019-05-14T06:05:55.459Z,3.20
2019-05-14T06:11:00.990Z,3.27
2019-05-14T06:16:09.204Z,3.00
2019-05-14T06:21:15.504Z,3.30
2019-05-14T06:26:21.170Z,3.30
2019-05-14T06:31:29.027Z,3.33
2019-05-14T06:36:34.138Z,3.27
2019-05-14T06:41:42.803Z,3.30
2019-05-14T06:46:52.378Z,3.40
2019-05-14T06:51:59.049Z,3.70
2019-05-14T06:57:05.137Z,3.30
2019-05-14T07:02:10.907Z,3.47
2019-05-14T07:07:16.779Z,3.60
2019-05-14T07:12:24.807Z,3.60
2019-05-14T07:17:38.405Z,3.70
2019-05-14T07:22:48.457Z,3.60
2019-05-14T07:28:02.190Z,3.80
2019-05-14T07:33:13.696Z,3.67
2019-05-14T07:38:29.352Z,3.50
2019-05-14T07:43:41.832Z,3.50
2019-05-14T07:49:04.412Z,3.80
2019-05-14T07:54:01.683Z,3.37
2019-05-14T07:59:09.047Z,3.97
2019-05-14T08:04:19.809Z,3.60
2019-05-14T08:09:28.232Z,3.50
2019-05-14T08:14:46.361Z,3.60
2019-05-14T08:19:44.791Z,3.27
2019-05-14T08:24:51.541Z,3.50
2019-05-14T08:29:58.924Z,3.37
2019-05-14T08:35:05.152Z,3.47
2019-05-14T08:40:19.046Z,2.90
2019-05-14T08:45:30.339Z,3.47
2019-05-14T08:50:38.802Z,3.37
2019-05-14T08:55:55.012Z,3.57
2019-05-14T09:01:00.721Z,3.00
2019-05-14T09:06:09.822Z,3.00
2019-05-14T09:11:22.980Z,3.23
2019-05-14T09:16:41.743Z,3.10
2019-05-14T09:21:39.535Z,2.80
2019-05-14T09:26:48.232Z,2.87
2019-05-14T09:31:58.953Z,3.10
2019-05-14T09:37:08.613Z,2.70
2019-05-14T09:42:14.473Z,2.83
2019-05-14T09:47:20.290Z,2.60
2019-05-14T09:52:29.349Z,3.13
2019-05-14T09:57:38.795Z,2.33
2019-05-14T10:02:44.591Z,2.50
2019-05-14T10:07:50.409Z,2.60
2019-05-14T10:12:57.259Z,2.40
2019-05-14T10:18:05.362Z,3.00
2019-05-14T10:23:12.421Z,2.77
2019-05-14T10:28:19.268Z,2.33
2019-05-14T10:33:24.965Z,2.80
2019-05-14T10:38:32.580Z,2.83
2019-05-14T10:43:42.572Z,2.30
2019-05-14T10:48:52.060Z,2.33
2019-05-14T10:54:16.936Z,2.53
2019-05-14T10:59:11.958Z,2.60
2019-05-14T11:04:19.175Z,2.30
2019-05-14T11:09:28.423Z,2.17
2019-05-14T11:14:33.393Z,2.30
2019-05-14T11:19:39.124Z,2.50
2019-05-14T11:24:44.911Z,2.70
2019-05-14T11:29:50.422Z,2.40
2019-05-14T11:34:55.968Z,1.97
2019-05-14T11:40:03.587Z,2.30
2019-05-14T11:45:09.234Z,2.00
2019-05-14T11:50:15.319Z,2.60
2019-05-14T11:55:20.772Z,2.20
2019-05-14T12:00:29.295Z,2.50
2019-05-14T12:05:35.456Z,2.60
2019-05-14T12:10:41.019Z,2.47
2019-05-14T12:15:48.564Z,2.50
2019-05-14T12:20:53.712Z,2.70
2019-05-14T12:25:59.288Z,2.27
2019-05-14T12:31:04.870Z,2.30
2019-05-14T12:36:10.658Z,2.90
2019-05-14T12:41:19.053Z,2.60
2019-05-14T12:46:23.318Z,2.73
2019-05-14T12:51:28.738Z,2.37
2019-05-14T12:56:34.208Z,2.40
2019-05-14T13:01:39.635Z,2.20
2019-05-14T13:06:45.070Z,2.23
2019-05-14T13:11:50.835Z,2.40
2019-05-14T13:16:56.280Z,2.30
2019-05-14T13:22:13.126Z,2.37
2019-05-14T13:27:09.651Z,1.77
2019-05-14T13:32:15.189Z,1.90
2019-05-14T13:37:20.665Z,2.00
2019-05-14T13:42:26.123Z,2.03
2019-05-14T13:47:31.673Z,2.00
2019-05-14T13:52:40.365Z,1.90
2019-05-14T13:57:44.511Z,1.90
2019-05-14T14:02:49.933Z,2.03
2019-05-14T14:07:55.359Z,1.77
2019-05-14T14:13:01.202Z,2.10
2019-05-14T14:18:06.814Z,1.93
2019-05-14T14:23:21.978Z,2.30
2019-05-14T14:28:19.886Z,2.07
2019-05-14T14:33:25.492Z,1.87
2019-05-14T14:38:31.002Z,1.90
2019-05-14T14:43:42.368Z,2.07
2019-05-14T14:48:43.871Z,2.00
2019-05-14T14:53:59.084Z,1.93
2019-05-14T14:58:56.695Z,1.80
2019-05-14T15:04:02.170Z,2.10
2019-05-14T15:09:09.778Z,1.80
2019-05-14T15:14:15.318Z,2.23
2019-05-14T15:19:20.775Z,1.80
2019-05-14T15:24:26.250Z,1.80
2019-05-14T15:29:31.707Z,1.97
2019-05-14T15:34:37.187Z,1.57
2019-05-14T15:39:42.887Z,2.00
2019-05-14T15:44:55.364Z,2.10
2019-05-14T15:49:55.748Z,2.53
2019-05-14T15:55:01.565Z,1.77
2019-05-14T16:00:08.718Z,2.20
2019-05-14T16:05:14.379Z,1.90
2019-05-14T16:10:21.730Z,1.73
2019-05-14T16:15:28.133Z,1.70
2019-05-14T16:20:33.753Z,1.73
2019-05-14T16:25:39.328Z,1.73
2019-05-14T16:30:44.862Z,1.77
2019-05-14T16:35:50.292Z,1.80
2019-05-14T16:40:55.736Z,1.63
2019-05-14T16:46:01.475Z,1.67
2019-05-14T16:51:08.915Z,1.60
2019-05-14T16:56:14.117Z,1.90
2019-05-14T17:01:19.555Z,1.93
2019-05-14T17:06:25.093Z,1.83
2019-05-14T17:11:30.604Z,1.60
2019-05-14T17:16:36.334Z,1.60
2019-05-14T17:21:42.050Z,1.90
2019-05-14T17:26:48.906Z,1.60
2019-05-14T17:31:54.431Z,1.60
2019-05-14T17:36:59.896Z,1.70
2019-05-14T17:42:05.368Z,1.70
2019-05-14T17:47:10.847Z,1.77
2019-05-14T17:52:21.884Z,1.83
2019-05-14T17:57:25.335Z,1.70
2019-05-14T18:02:30.859Z,2.10
2019-05-14T18:07:36.384Z,1.70
2019-05-14T18:12:42.044Z,1.70
2019-05-14T18:17:49.549Z,1.50
2019-05-14T18:22:54.734Z,1.50
2019-05-14T18:28:00.182Z,1.70
2019-05-14T18:33:07.846Z,1.60
2019-05-14T18:38:12.753Z,1.70
2019-05-14T18:43:18.812Z,1.40
2019-05-14T18:48:24.323Z,1.63
2019-05-14T18:53:29.783Z,1.60
2019-05-14T18:58:35.295Z,1.40
2019-05-14T19:03:40.855Z,1.87
2019-05-14T19:08:48.316Z,1.60
2019-05-14T19:13:53.552Z,1.60
2019-05-14T19:18:59.001Z,1.63
2019-05-14T19:24:04.466Z,1.50
2019-05-14T19:29:09.960Z,1.70
2019-05-14T19:34:15.390Z,1.83
2019-05-14T19:39:21.177Z,1.60
2019-05-14T19:44:26.726Z,1.90
2019-05-14T19:49:32.261Z,1.80
2019-05-14T19:54:38.432Z,1.90
2019-05-14T19:59:43.990Z,1.57
2019-05-14T20:04:49.488Z,1.80
2019-05-14T20:09:54.909Z,1.70
2019-05-14T20:15:00.365Z,1.83
2019-05-14T20:20:08.619Z,1.80
2019-05-14T20:25:13.626Z,1.90
2019-05-14T20:30:19.445Z,1.90
2019-05-14T20:35:31.712Z,1.90
2019-05-14T20:40:32.085Z,1.80
2019-05-14T20:45:39.151Z,1.67
2019-05-14T20:50:44.741Z,2.53
2019-05-14T20:55:50.193Z,1.70
2019-05-14T21:00:55.613Z,2.07
2019-05-14T21:06:01.051Z,1.63
2019-05-14T21:11:08.211Z,1.90
2019-05-14T21:16:13.621Z,1.70
2019-05-14T21:21:19.076Z,2.00
2019-05-14T21:26:24.643Z,1.60
2019-05-14T21:31:30.436Z,1.90
2019-05-14T21:36:36.271Z,1.87
2019-05-14T21:41:41.955Z,1.77
2019-05-14T21:46:48.337Z,1.93
2019-05-14T21:51:58.030Z,2.00
2019-05-14T21:57:11.278Z,1.90
2019-05-14T22:02:24.294Z,2.20
2019-05-14T22:07:25.713Z,1.90
2019-05-14T22:12:34.563Z,2.00
2019-05-14T22:17:45.017Z,1.77
2019-05-14T22:23:15.358Z,1.67
2019-05-14T22:28:22.305Z,2.00
2019-05-14T22:33:31.440Z,1.93
2019-05-14T22:38:45.031Z,2.07
2019-05-14T22:44:00.036Z,1.93
2019-05-14T22:49:14.701Z,1.90
2019-05-14T22:54:24.084Z,1.90
2019-05-14T22:59:32.173Z,1.80
2019-05-14T23:04:40.357Z,2.23
2019-05-14T23:09:48.264Z,2.00
2019-05-14T23:53:56.432Z,1.90
